sensor_id;sensor_type;location;lat;lon;timestamp;P1;durP1;ratioP1;P2;durP2;ratioP2
14992;SDS011;7592;51.088;13.732;2023-01-23T00:03:26;23.47;;;15.13;;
14992;SDS011;7592;51.088;13.732;2023-01-23T00:08:18;24.13;;;15.03;;
14992;SDS011;7592;51.088;13.732;2023-01-23T00:13:12;22.97;;;15.40;;
14992;SDS011;7592;51.088;13.732;2023-01-23T00:18:04;23.60;;;14.43;;
14992;SDS011;7592;51.088;13.732;2023-01-23T00:22:56;29.37;;;17.07;;
14992;SDS011;7592;51.088;13.732;2023-01-23T00:27:48;23.20;;;15.13;;
14992;SDS011;7592;51.088;13.732;2023-01-23T00:32:40;25.77;;;16.33;;
14992;SDS011;7592;51.088;13.732;2023-01-23T00:37:32;27.83;;;16.27;;
14992;SDS011;7592;51.088;13.732;2023-01-23T00:42:24;28.37;;;17.17;;
14992;SDS011;7592;51.088;13.732;2023-01-23T00:47:16;28.87;;;16.97;;
14992;SDS011;7592;51.088;13.732;2023-01-23T00:52:08;27.37;;;16.73;;
14992;SDS011;7592;51.088;13.732;2023-01-23T00:57:01;27.47;;;16.70;;
14992;SDS011;7592;51.088;13.732;2023-01-23T01:01:53;25.80;;;15.73;;
14992;SDS011;7592;51.088;13.732;2023-01-23T01:06:45;26.43;;;15.73;;
14992;SDS011;7592;51.088;13.732;2023-01-23T01:11:39;27.33;;;16.80;;
14992;SDS011;7592;51.088;13.732;2023-01-23T01:16:31;25.20;;;16.27;;
14992;SDS011;7592;51.088;13.732;2023-01-23T01:21:25;27.50;;;16.47;;
14992;SDS011;7592;51.088;13.732;2023-01-23T01:26:18;25.30;;;16.03;;
14992;SDS011;7592;51.088;13.732;2023-01-23T01:31:14;22.60;;;14.27;;
14992;SDS011;7592;51.088;13.732;2023-01-23T01:36:14;25.00;;;15.30;;
14992;SDS011;7592;51.088;13.732;2023-01-23T01:41:10;24.57;;;15.47;;
14992;SDS011;7592;51.088;13.732;2023-01-23T01:51:08;22.43;;;14.77;;
14992;SDS011;7592;51.088;13.732;2023-01-23T01:56:08;26.17;;;15.57;;
14992;SDS011;7592;51.088;13.732;2023-01-23T02:01:03;20.87;;;14.33;;
14992;SDS011;7592;51.088;13.732;2023-01-23T02:13:29;22.27;;;15.00;;
14992;SDS011;7592;51.088;13.732;2023-01-23T02:18:27;21.77;;;14.80;;
14992;SDS011;7592;51.088;13.732;2023-01-23T02:28:34;22.53;;;15.03;;
14992;SDS011;7592;51.088;13.732;2023-01-23T02:38:29;20.87;;;13.63;;
14992;SDS011;7592;51.088;13.732;2023-01-23T02:43:26;23.20;;;14.93;;
14992;SDS011;7592;51.088;13.732;2023-01-23T02:48:28;22.67;;;13.03;;
14992;SDS011;7592;51.088;13.732;2023-01-23T02:53:22;20.90;;;14.33;;
14992;SDS011;7592;51.088;13.732;2023-01-23T02:58:15;23.60;;;14.63;;
14992;SDS011;7592;51.088;13.732;2023-01-23T03:03:26;18.87;;;13.30;;
14992;SDS011;7592;51.088;13.732;2023-01-23T03:08:19;20.33;;;13.57;;
14992;SDS011;7592;51.088;13.732;2023-01-23T03:13:11;23.23;;;15.43;;
14992;SDS011;7592;51.088;13.732;2023-01-23T03:18:04;25.73;;;15.00;;
14992;SDS011;7592;51.088;13.732;2023-01-23T03:22:56;26.93;;;16.20;;
14992;SDS011;7592;51.088;13.732;2023-01-23T03:27:51;25.93;;;16.37;;
14992;SDS011;7592;51.088;13.732;2023-01-23T03:32:43;28.37;;;15.80;;
14992;SDS011;7592;51.088;13.732;2023-01-23T03:37:36;26.03;;;16.17;;
14992;SDS011;7592;51.088;13.732;2023-01-23T03:42:29;24.30;;;16.00;;
14992;SDS011;7592;51.088;13.732;2023-01-23T03:47:26;25.90;;;16.63;;
14992;SDS011;7592;51.088;13.732;2023-01-23T03:52:19;20.90;;;14.67;;
14992;SDS011;7592;51.088;13.732;2023-01-23T03:57:11;23.10;;;14.30;;
14992;SDS011;7592;51.088;13.732;2023-01-23T04:02:28;22.27;;;13.80;;
14992;SDS011;7592;51.088;13.732;2023-01-23T04:07:20;23.60;;;13.97;;
14992;SDS011;7592;51.088;13.732;2023-01-23T04:12:13;21.17;;;13.50;;
14992;SDS011;7592;51.088;13.732;2023-01-23T04:17:10;20.27;;;13.43;;
14992;SDS011;7592;51.088;13.732;2023-01-23T04:22:02;20.80;;;14.10;;
14992;SDS011;7592;51.088;13.732;2023-01-23T04:27:02;18.57;;;13.33;;
14992;SDS011;7592;51.088;13.732;2023-01-23T04:31:57;21.47;;;15.17;;
14992;SDS011;7592;51.088;13.732;2023-01-23T04:36:49;24.47;;;16.30;;
14992;SDS011;7592;51.088;13.732;2023-01-23T04:41:42;23.10;;;14.17;;
14992;SDS011;7592;51.088;13.732;2023-01-23T04:46:51;24.50;;;16.57;;
14992;SDS011;7592;51.088;13.732;2023-01-23T04:51:45;25.07;;;16.33;;
14992;SDS011;7592;51.088;13.732;2023-01-23T04:56:40;26.40;;;17.10;;
14992;SDS011;7592;51.088;13.732;2023-01-23T05:01:34;28.00;;;17.67;;
14992;SDS011;7592;51.088;13.732;2023-01-23T05:06:27;32.33;;;21.53;;
14992;SDS011;7592;51.088;13.732;2023-01-23T05:11:22;28.40;;;18.53;;
14992;SDS011;7592;51.088;13.732;2023-01-23T05:16:14;28.33;;;16.53;;
14992;SDS011;7592;51.088;13.732;2023-01-23T05:21:32;28.47;;;17.93;;
14992;SDS011;7592;51.088;13.732;2023-01-23T05:26:24;26.10;;;17.03;;
14992;SDS011;7592;51.088;13.732;2023-01-23T05:31:19;25.70;;;15.13;;
14992;SDS011;7592;51.088;13.732;2023-01-23T05:36:31;33.17;;;20.40;;
14992;SDS011;7592;51.088;13.732;2023-01-23T05:41:23;34.33;;;19.47;;
14992;SDS011;7592;51.088;13.732;2023-01-23T05:46:38;41.50;;;25.30;;
14992;SDS011;7592;51.088;13.732;2023-01-23T05:51:31;34.43;;;21.20;;
14992;SDS011;7592;51.088;13.732;2023-01-23T05:56:24;34.47;;;19.20;;
14992;SDS011;7592;51.088;13.732;2023-01-23T06:01:40;33.23;;;20.27;;
14992;SDS011;7592;51.088;13.732;2023-01-23T06:06:51;33.03;;;18.03;;
14992;SDS011;7592;51.088;13.732;2023-01-23T06:11:43;33.80;;;19.43;;
14992;SDS011;7592;51.088;13.732;2023-01-23T06:16:35;34.23;;;18.80;;
14992;SDS011;7592;51.088;13.732;2023-01-23T06:21:28;35.17;;;20.03;;
14992;SDS011;7592;51.088;13.732;2023-01-23T06:26:21;30.40;;;17.70;;
14992;SDS011;7592;51.088;13.732;2023-01-23T06:31:13;30.80;;;18.90;;
14992;SDS011;7592;51.088;13.732;2023-01-23T06:36:12;34.50;;;20.53;;
14992;SDS011;7592;51.088;13.732;2023-01-23T06:41:05;30.40;;;18.80;;
14992;SDS011;7592;51.088;13.732;2023-01-23T06:46:01;28.10;;;18.17;;
14992;SDS011;7592;51.088;13.732;2023-01-23T06:50:57;33.70;;;20.33;;
14992;SDS011;7592;51.088;13.732;2023-01-23T06:55:52;31.80;;;20.63;;
14992;SDS011;7592;51.088;13.732;2023-01-23T07:00:45;31.80;;;19.30;;
14992;SDS011;7592;51.088;13.732;2023-01-23T07:06:00;30.87;;;18.97;;
14992;SDS011;7592;51.088;13.732;2023-01-23T07:10:54;28.30;;;18.57;;
14992;SDS011;7592;51.088;13.732;2023-01-23T07:15:46;33.30;;;19.73;;
14992;SDS011;7592;51.088;13.732;2023-01-23T07:20:38;30.57;;;18.80;;
14992;SDS011;7592;51.088;13.732;2023-01-23T07:25:30;29.53;;;19.00;;
14992;SDS011;7592;51.088;13.732;2023-01-23T07:30:23;30.83;;;18.20;;
14992;SDS011;7592;51.088;13.732;2023-01-23T07:35:16;33.80;;;20.40;;
14992;SDS011;7592;51.088;13.732;2023-01-23T07:40:08;31.47;;;19.07;;
14992;SDS011;7592;51.088;13.732;2023-01-23T07:45:01;26.30;;;17.77;;
14992;SDS011;7592;51.088;13.732;2023-01-23T07:49:54;30.63;;;19.30;;
14992;SDS011;7592;51.088;13.732;2023-01-23T07:54:46;30.10;;;19.93;;
14992;SDS011;7592;51.088;13.732;2023-01-23T07:59:38;36.67;;;21.77;;
14992;SDS011;7592;51.088;13.732;2023-01-23T08:04:30;33.93;;;21.37;;
14992;SDS011;7592;51.088;13.732;2023-01-23T08:09:22;37.40;;;22.07;;
14992;SDS011;7592;51.088;13.732;2023-01-23T08:14:14;33.60;;;21.57;;
14992;SDS011;7592;51.088;13.732;2023-01-23T08:19:07;34.50;;;19.93;;
14992;SDS011;7592;51.088;13.732;2023-01-23T08:24:02;51.33;;;36.70;;
14992;SDS011;7592;51.088;13.732;2023-01-23T08:28:55;36.40;;;20.53;;
14992;SDS011;7592;51.088;13.732;2023-01-23T08:33:47;31.67;;;19.87;;
14992;SDS011;7592;51.088;13.732;2023-01-23T08:38:39;34.40;;;20.90;;
14992;SDS011;7592;51.088;13.732;2023-01-23T08:43:31;30.83;;;20.00;;
14992;SDS011;7592;51.088;13.732;2023-01-23T08:48:24;41.90;;;25.57;;
14992;SDS011;7592;51.088;13.732;2023-01-23T08:53:17;34.87;;;22.13;;
14992;SDS011;7592;51.088;13.732;2023-01-23T08:58:09;33.97;;;20.47;;
14992;SDS011;7592;51.088;13.732;2023-01-23T09:03:05;32.70;;;20.60;;
14992;SDS011;7592;51.088;13.732;2023-01-23T09:07:57;34.97;;;20.37;;
14992;SDS011;7592;51.088;13.732;2023-01-23T09:12:53;44.10;;;27.40;;
14992;SDS011;7592;51.088;13.732;2023-01-23T09:17:45;41.77;;;24.50;;
14992;SDS011;7592;51.088;13.732;2023-01-23T09:22:37;37.07;;;22.17;;
14992;SDS011;7592;51.088;13.732;2023-01-23T09:27:29;37.67;;;22.57;;
14992;SDS011;7592;51.088;13.732;2023-01-23T09:32:21;39.17;;;22.77;;
14992;SDS011;7592;51.088;13.732;2023-01-23T09:37:14;33.37;;;19.33;;
14992;SDS011;7592;51.088;13.732;2023-01-23T09:42:08;58.57;;;34.00;;
14992;SDS011;7592;51.088;13.732;2023-01-23T09:47:09;40.00;;;23.90;;
14992;SDS011;7592;51.088;13.732;2023-01-23T09:52:29;36.47;;;21.07;;
14992;SDS011;7592;51.088;13.732;2023-01-23T10:02:35;33.50;;;20.70;;
14992;SDS011;7592;51.088;13.732;2023-01-23T10:12:40;30.80;;;20.87;;
14992;SDS011;7592;51.088;13.732;2023-01-23T10:28:37;27.07;;;18.20;;
14992;SDS011;7592;51.088;13.732;2023-01-23T10:33:35;28.27;;;18.80;;
14992;SDS011;7592;51.088;13.732;2023-01-23T10:38:59;28.13;;;19.50;;
14992;SDS011;7592;51.088;13.732;2023-01-23T10:43:55;29.27;;;19.03;;
14992;SDS011;7592;51.088;13.732;2023-01-23T10:48:50;29.53;;;19.23;;
14992;SDS011;7592;51.088;13.732;2023-01-23T10:53:44;26.17;;;18.07;;
14992;SDS011;7592;51.088;13.732;2023-01-23T10:58:55;24.43;;;17.27;;
14992;SDS011;7592;51.088;13.732;2023-01-23T11:03:48;27.80;;;18.57;;
14992;SDS011;7592;51.088;13.732;2023-01-23T11:08:59;24.77;;;19.00;;
14992;SDS011;7592;51.088;13.732;2023-01-23T11:19:17;24.57;;;17.60;;
14992;SDS011;7592;51.088;13.732;2023-01-23T11:29:20;21.17;;;15.50;;
14992;SDS011;7592;51.088;13.732;2023-01-23T11:34:14;26.57;;;18.10;;
14992;SDS011;7592;51.088;13.732;2023-01-23T11:44:15;25.73;;;17.43;;
14992;SDS011;7592;51.088;13.732;2023-01-23T11:49:23;26.30;;;18.20;;
14992;SDS011;7592;51.088;13.732;2023-01-23T11:59:48;30.50;;;20.67;;
14992;SDS011;7592;51.088;13.732;2023-01-23T12:04:56;29.00;;;18.77;;
14992;SDS011;7592;51.088;13.732;2023-01-23T12:21:18;30.57;;;19.47;;
14992;SDS011;7592;51.088;13.732;2023-01-23T12:26:18;29.50;;;19.10;;
14992;SDS011;7592;51.088;13.732;2023-01-23T12:42:13;31.47;;;19.97;;
14992;SDS011;7592;51.088;13.732;2023-01-23T12:47:19;29.43;;;20.07;;
14992;SDS011;7592;51.088;13.732;2023-01-23T12:52:40;43.53;;;26.80;;
14992;SDS011;7592;51.088;13.732;2023-01-23T12:57:41;39.33;;;23.60;;
14992;SDS011;7592;51.088;13.732;2023-01-23T13:08:36;37.13;;;23.23;;
14992;SDS011;7592;51.088;13.732;2023-01-23T13:13:56;37.40;;;23.97;;
14992;SDS011;7592;51.088;13.732;2023-01-23T13:18:53;41.57;;;23.70;;
14992;SDS011;7592;51.088;13.732;2023-01-23T13:29:54;45.80;;;26.53;;
14992;SDS011;7592;51.088;13.732;2023-01-23T13:34:49;45.07;;;26.30;;
14992;SDS011;7592;51.088;13.732;2023-01-23T13:39:47;49.60;;;28.30;;
14992;SDS011;7592;51.088;13.732;2023-01-23T13:50:10;52.20;;;28.63;;
14992;SDS011;7592;51.088;13.732;2023-01-23T13:56:46;53.47;;;30.07;;
14992;SDS011;7592;51.088;13.732;2023-01-23T14:01:58;57.77;;;31.50;;
14992;SDS011;7592;51.088;13.732;2023-01-23T14:07:31;56.83;;;30.00;;
14992;SDS011;7592;51.088;13.732;2023-01-23T14:13:06;58.67;;;32.33;;
14992;SDS011;7592;51.088;13.732;2023-01-23T14:23:37;58.80;;;31.60;;
14992;SDS011;7592;51.088;13.732;2023-01-23T14:28:31;57.03;;;29.70;;
14992;SDS011;7592;51.088;13.732;2023-01-23T14:33:24;52.73;;;29.70;;
14992;SDS011;7592;51.088;13.732;2023-01-23T14:38:22;61.57;;;31.43;;
14992;SDS011;7592;51.088;13.732;2023-01-23T14:43:20;62.23;;;31.23;;
14992;SDS011;7592;51.088;13.732;2023-01-23T14:48:14;60.03;;;33.20;;
14992;SDS011;7592;51.088;13.732;2023-01-23T14:53:12;48.87;;;30.03;;
14992;SDS011;7592;51.088;13.732;2023-01-23T14:58:09;57.63;;;32.23;;
14992;SDS011;7592;51.088;13.732;2023-01-23T15:03:11;57.47;;;30.40;;
14992;SDS011;7592;51.088;13.732;2023-01-23T15:08:25;54.17;;;31.27;;
14992;SDS011;7592;51.088;13.732;2023-01-23T15:13:23;61.93;;;32.80;;
14992;SDS011;7592;51.088;13.732;2023-01-23T15:18:28;61.97;;;32.13;;
14992;SDS011;7592;51.088;13.732;2023-01-23T15:28:57;69.17;;;34.27;;
14992;SDS011;7592;51.088;13.732;2023-01-23T15:33:55;63.43;;;32.77;;
14992;SDS011;7592;51.088;13.732;2023-01-23T15:39:02;63.33;;;32.97;;
14992;SDS011;7592;51.088;13.732;2023-01-23T15:43:54;67.27;;;32.67;;
14992;SDS011;7592;51.088;13.732;2023-01-23T15:48:46;68.47;;;34.10;;
14992;SDS011;7592;51.088;13.732;2023-01-23T15:53:38;65.40;;;32.93;;
14992;SDS011;7592;51.088;13.732;2023-01-23T15:58:31;55.77;;;30.67;;
14992;SDS011;7592;51.088;13.732;2023-01-23T16:03:23;60.33;;;31.27;;
14992;SDS011;7592;51.088;13.732;2023-01-23T16:08:19;54.43;;;28.70;;
14992;SDS011;7592;51.088;13.732;2023-01-23T16:13:13;58.47;;;30.30;;
14992;SDS011;7592;51.088;13.732;2023-01-23T16:18:05;51.93;;;29.47;;
14992;SDS011;7592;51.088;13.732;2023-01-23T16:22:58;62.90;;;31.07;;
14992;SDS011;7592;51.088;13.732;2023-01-23T16:28:05;75.10;;;45.53;;
14992;SDS011;7592;51.088;13.732;2023-01-23T16:32:57;61.97;;;31.60;;
14992;SDS011;7592;51.088;13.732;2023-01-23T16:37:50;57.37;;;30.63;;
14992;SDS011;7592;51.088;13.732;2023-01-23T16:42:47;61.63;;;32.93;;
14992;SDS011;7592;51.088;13.732;2023-01-23T16:47:40;51.40;;;29.53;;
14992;SDS011;7592;51.088;13.732;2023-01-23T16:52:32;57.20;;;31.27;;
14992;SDS011;7592;51.088;13.732;2023-01-23T16:57:24;63.53;;;34.67;;
14992;SDS011;7592;51.088;13.732;2023-01-23T17:02:27;61.53;;;32.07;;
14992;SDS011;7592;51.088;13.732;2023-01-23T17:07:20;57.57;;;31.33;;
14992;SDS011;7592;51.088;13.732;2023-01-23T17:12:24;48.03;;;28.80;;
14992;SDS011;7592;51.088;13.732;2023-01-23T17:17:30;48.27;;;28.07;;
14992;SDS011;7592;51.088;13.732;2023-01-23T17:22:25;49.47;;;28.07;;
14992;SDS011;7592;51.088;13.732;2023-01-23T17:27:21;48.70;;;28.93;;
14992;SDS011;7592;51.088;13.732;2023-01-23T17:32:27;49.23;;;28.70;;
14992;SDS011;7592;51.088;13.732;2023-01-23T17:37:23;51.47;;;29.90;;
14992;SDS011;7592;51.088;13.732;2023-01-23T17:42:15;70.47;;;41.57;;
14992;SDS011;7592;51.088;13.732;2023-01-23T17:47:10;51.77;;;28.37;;
14992;SDS011;7592;51.088;13.732;2023-01-23T17:52:03;49.57;;;27.30;;
14992;SDS011;7592;51.088;13.732;2023-01-23T17:56:55;134.70;;;62.83;;
14992;SDS011;7592;51.088;13.732;2023-01-23T18:01:47;53.60;;;31.93;;
14992;SDS011;7592;51.088;13.732;2023-01-23T18:06:41;57.80;;;32.93;;
14992;SDS011;7592;51.088;13.732;2023-01-23T18:11:33;50.00;;;28.33;;
14992;SDS011;7592;51.088;13.732;2023-01-23T18:16:30;53.27;;;29.90;;
14992;SDS011;7592;51.088;13.732;2023-01-23T18:21:28;66.77;;;38.00;;
14992;SDS011;7592;51.088;13.732;2023-01-23T18:31:33;54.57;;;32.87;;
14992;SDS011;7592;51.088;13.732;2023-01-23T18:41:28;43.13;;;27.83;;
14992;SDS011;7592;51.088;13.732;2023-01-23T18:46:20;45.67;;;28.10;;
14992;SDS011;7592;51.088;13.732;2023-01-23T19:01:37;46.13;;;27.43;;
14992;SDS011;7592;51.088;13.732;2023-01-23T19:06:44;46.33;;;27.47;;
14992;SDS011;7592;51.088;13.732;2023-01-23T19:17:21;45.70;;;25.33;;
14992;SDS011;7592;51.088;13.732;2023-01-23T19:22:15;45.07;;;25.73;;
14992;SDS011;7592;51.088;13.732;2023-01-23T19:27:20;48.90;;;28.83;;
14992;SDS011;7592;51.088;13.732;2023-01-23T19:32:14;50.87;;;28.77;;
14992;SDS011;7592;51.088;13.732;2023-01-23T19:37:06;50.13;;;29.43;;
14992;SDS011;7592;51.088;13.732;2023-01-23T19:41:59;53.60;;;29.30;;
14992;SDS011;7592;51.088;13.732;2023-01-23T19:46:51;52.50;;;30.90;;
14992;SDS011;7592;51.088;13.732;2023-01-23T19:51:43;49.03;;;28.97;;
14992;SDS011;7592;51.088;13.732;2023-01-23T19:56:36;58.67;;;33.40;;
14992;SDS011;7592;51.088;13.732;2023-01-23T20:01:33;58.77;;;33.00;;
14992;SDS011;7592;51.088;13.732;2023-01-23T20:06:33;57.97;;;30.13;;
14992;SDS011;7592;51.088;13.732;2023-01-23T20:11:30;57.73;;;31.37;;
14992;SDS011;7592;51.088;13.732;2023-01-23T20:16:22;52.97;;;29.27;;
14992;SDS011;7592;51.088;13.732;2023-01-23T20:21:16;53.03;;;30.37;;
14992;SDS011;7592;51.088;13.732;2023-01-23T20:26:10;58.63;;;33.37;;
14992;SDS011;7592;51.088;13.732;2023-01-23T20:31:03;64.13;;;34.10;;
14992;SDS011;7592;51.088;13.732;2023-01-23T20:35:56;55.53;;;30.20;;
14992;SDS011;7592;51.088;13.732;2023-01-23T20:40:49;59.60;;;33.47;;
14992;SDS011;7592;51.088;13.732;2023-01-23T20:45:48;58.90;;;32.33;;
14992;SDS011;7592;51.088;13.732;2023-01-23T20:50:41;59.57;;;31.43;;
14992;SDS011;7592;51.088;13.732;2023-01-23T20:55:34;53.53;;;31.03;;
14992;SDS011;7592;51.088;13.732;2023-01-23T21:00:26;50.73;;;31.23;;
14992;SDS011;7592;51.088;13.732;2023-01-23T21:05:18;57.70;;;32.03;;
14992;SDS011;7592;51.088;13.732;2023-01-23T21:10:11;63.63;;;33.27;;
14992;SDS011;7592;51.088;13.732;2023-01-23T21:15:04;58.60;;;31.90;;
14992;SDS011;7592;51.088;13.732;2023-01-23T21:20:02;57.60;;;33.60;;
14992;SDS011;7592;51.088;13.732;2023-01-23T21:24:55;56.77;;;32.33;;
14992;SDS011;7592;51.088;13.732;2023-01-23T21:29:48;61.57;;;32.83;;
14992;SDS011;7592;51.088;13.732;2023-01-23T21:34:40;59.03;;;32.53;;
14992;SDS011;7592;51.088;13.732;2023-01-23T21:39:32;63.73;;;34.37;;
14992;SDS011;7592;51.088;13.732;2023-01-23T21:44:24;59.37;;;33.00;;
14992;SDS011;7592;51.088;13.732;2023-01-23T21:49:16;66.03;;;34.83;;
14992;SDS011;7592;51.088;13.732;2023-01-23T21:54:08;60.87;;;33.33;;
14992;SDS011;7592;51.088;13.732;2023-01-23T21:59:00;60.67;;;31.03;;
14992;SDS011;7592;51.088;13.732;2023-01-23T22:03:52;60.50;;;34.47;;
14992;SDS011;7592;51.088;13.732;2023-01-23T22:08:44;62.33;;;32.83;;
14992;SDS011;7592;51.088;13.732;2023-01-23T22:13:37;63.60;;;33.93;;
14992;SDS011;7592;51.088;13.732;2023-01-23T22:18:29;65.83;;;32.90;;
14992;SDS011;7592;51.088;13.732;2023-01-23T22:23:22;59.67;;;32.53;;
14992;SDS011;7592;51.088;13.732;2023-01-23T22:28:15;68.03;;;34.40;;
14992;SDS011;7592;51.088;13.732;2023-01-23T22:33:08;68.20;;;35.17;;
14992;SDS011;7592;51.088;13.732;2023-01-23T22:38:00;64.57;;;34.00;;
14992;SDS011;7592;51.088;13.732;2023-01-23T22:42:52;64.20;;;33.90;;
14992;SDS011;7592;51.088;13.732;2023-01-23T22:47:44;62.70;;;33.57;;
14992;SDS011;7592;51.088;13.732;2023-01-23T22:52:36;71.67;;;37.00;;
14992;SDS011;7592;51.088;13.732;2023-01-23T22:57:28;66.80;;;34.93;;
14992;SDS011;7592;51.088;13.732;2023-01-23T23:02:20;67.37;;;34.00;;
14992;SDS011;7592;51.088;13.732;2023-01-23T23:07:12;67.97;;;34.00;;
14992;SDS011;7592;51.088;13.732;2023-01-23T23:12:04;72.30;;;37.27;;
14992;SDS011;7592;51.088;13.732;2023-01-23T23:16:56;64.97;;;34.27;;
14992;SDS011;7592;51.088;13.732;2023-01-23T23:21:49;61.03;;;33.70;;
14992;SDS011;7592;51.088;13.732;2023-01-23T23:26:41;62.80;;;35.10;;
14992;SDS011;7592;51.088;13.732;2023-01-23T23:31:33;60.47;;;32.80;;
14992;SDS011;7592;51.088;13.732;2023-01-23T23:36:26;66.87;;;34.67;;
14992;SDS011;7592;51.088;13.732;2023-01-23T23:41:18;69.83;;;34.50;;
14992;SDS011;7592;51.088;13.732;2023-01-23T23:46:11;63.77;;;34.27;;
14992;SDS011;7592;51.088;13.732;2023-01-23T23:51:05;64.53;;;34.33;;
14992;SDS011;7592;51.088;13.732;2023-01-23T23:55:58;64.30;;;33.97;;
